createdAt,value
2018-11-23T00:00:22.951Z,83.54
2018-11-23T00:02:51.859Z,83.79
2018-11-23T00:05:20.619Z,83.52
2018-11-23T00:07:49.434Z,83.47
2018-11-23T00:10:19.123Z,83.43
2018-11-23T00:12:47.730Z,83.37
2018-11-23T00:15:17.315Z,83.46
2018-11-23T00:17:45.709Z,83.31
2018-11-23T00:20:17.559Z,83.26
2018-11-23T00:22:45.964Z,83.21
2018-11-23T00:25:16.618Z,82.98
2018-11-23T00:27:45.074Z,83.38
2018-11-23T00:30:15.571Z,83.19
2018-11-23T00:32:44.366Z,83.38
2018-11-23T00:35:14.596Z,82.92
2018-11-23T00:37:43.174Z,82.68
2018-11-23T00:40:13.866Z,82.91
2018-11-23T00:42:42.902Z,82.95
2018-11-23T00:45:12.737Z,83.76
2018-11-23T00:47:41.610Z,83.76
2018-11-23T00:50:13.705Z,83.42
2018-11-23T00:52:42.671Z,83.60
2018-11-23T00:55:12.815Z,83.61
2018-11-23T00:57:41.302Z,83.86
2018-11-23T01:00:13.878Z,83.67
2018-11-23T01:02:42.639Z,83.81
2018-11-23T01:05:12.267Z,84.29
2018-11-23T01:07:41.247Z,83.79
2018-11-23T01:10:11.590Z,83.79
2018-11-23T01:12:39.974Z,83.78
2018-11-23T01:15:08.963Z,83.85
2018-11-23T01:17:37.332Z,84.15
2018-11-23T01:20:07.393Z,84.12
2018-11-23T01:22:35.759Z,84.18
2018-11-23T01:25:04.358Z,84.14
2018-11-23T01:27:32.727Z,84.21
2018-11-23T01:30:01.119Z,84.22
2018-11-23T01:32:29.486Z,84.08
2018-11-23T01:34:58.058Z,84.37
2018-11-23T01:37:26.433Z,84.15
2018-11-23T01:39:54.818Z,84.06
2018-11-23T01:42:23.186Z,83.89
2018-11-23T01:44:52.183Z,84.01
2018-11-23T01:47:22.291Z,83.85
2018-11-23T01:49:50.709Z,83.94
2018-11-23T01:52:19.074Z,84.13
2018-11-23T01:54:47.471Z,84.04
2018-11-23T01:57:15.840Z,83.83
2018-11-23T01:59:44.251Z,84.13
2018-11-23T02:02:12.610Z,84.08
2018-11-23T02:04:40.965Z,84.07
2018-11-23T02:07:09.343Z,83.90
2018-11-23T02:09:37.707Z,83.75
2018-11-23T02:12:06.094Z,83.72
2018-11-23T02:14:34.451Z,83.76
2018-11-23T02:17:02.833Z,83.51
2018-11-23T02:19:31.311Z,84.11
2018-11-23T02:21:59.755Z,83.77
2018-11-23T02:24:28.119Z,83.70
2018-11-23T02:26:56.519Z,83.89
2018-11-23T02:29:24.892Z,83.76
2018-11-23T02:31:53.278Z,83.91
2018-11-23T02:34:21.642Z,83.91
2018-11-23T02:36:50.047Z,83.80
2018-11-23T02:39:18.419Z,83.70
2018-11-23T02:41:46.820Z,84.25
2018-11-23T02:44:15.187Z,83.98
2018-11-23T02:46:43.573Z,84.57
2018-11-23T02:49:11.943Z,84.13
2018-11-23T02:51:40.326Z,84.25
2018-11-23T02:54:08.689Z,84.27
2018-11-23T02:56:42.467Z,84.07
2018-11-23T02:59:10.831Z,84.22
2018-11-23T03:01:39.636Z,84.47
2018-11-23T03:04:08.806Z,84.09
2018-11-23T03:06:37.199Z,84.18
2018-11-23T03:09:08.335Z,84.08
2018-11-23T03:11:38.171Z,83.88
2018-11-23T03:14:06.679Z,83.95
2018-11-23T03:16:35.394Z,83.79
2018-11-23T03:19:03.770Z,84.25
2018-11-23T03:21:32.179Z,83.90
2018-11-23T03:24:00.547Z,83.59
2018-11-23T03:26:28.926Z,84.41
2018-11-23T03:28:57.281Z,83.91
2018-11-23T03:31:26.447Z,83.83
2018-11-23T03:33:55.146Z,84.09
2018-11-23T03:36:24.328Z,83.82
2018-11-23T03:38:53.089Z,84.35
2018-11-23T03:41:21.474Z,84.43
2018-11-23T03:43:49.956Z,84.39
2018-11-23T03:46:18.371Z,84.56
2018-11-23T03:48:46.746Z,84.52
2018-11-23T03:51:15.131Z,84.72
2018-11-23T03:53:43.515Z,84.71
2018-11-23T03:56:12.054Z,84.54
2018-11-23T03:58:40.450Z,84.15
2018-11-23T04:01:08.809Z,84.58
2018-11-23T04:03:37.222Z,84.35
2018-11-23T04:06:05.822Z,84.40
2018-11-23T04:08:34.215Z,84.31
2018-11-23T04:11:02.579Z,84.46
2018-11-23T04:13:30.978Z,84.30
2018-11-23T04:15:59.346Z,83.95
2018-11-23T04:18:27.738Z,84.33
2018-11-23T04:21:00.141Z,83.92
2018-11-23T04:23:28.966Z,83.69
2018-11-23T04:25:57.346Z,84.16
2018-11-23T04:28:25.785Z,84.05
2018-11-23T04:30:54.392Z,83.78
2018-11-23T04:33:23.098Z,83.96
2018-11-23T04:35:51.559Z,83.30
2018-11-23T04:38:19.964Z,83.60
2018-11-23T04:40:48.330Z,83.41
2018-11-23T04:43:16.759Z,83.57
2018-11-23T04:45:45.121Z,83.07
2018-11-23T04:48:13.498Z,83.48
2018-11-23T04:50:41.929Z,83.52
2018-11-23T04:53:10.323Z,83.17
2018-11-23T04:55:38.689Z,83.39
2018-11-23T04:58:07.059Z,83.12
2018-11-23T05:00:35.447Z,83.11
2018-11-23T05:03:03.815Z,83.07
2018-11-23T05:05:32.203Z,83.20
2018-11-23T05:08:00.578Z,82.85
2018-11-23T05:10:28.966Z,82.85
2018-11-23T05:12:57.330Z,82.57
2018-11-23T05:15:25.736Z,82.80
2018-11-23T05:17:54.107Z,82.96
2018-11-23T05:20:22.520Z,82.60
2018-11-23T05:22:50.886Z,82.69
2018-11-23T05:25:20.090Z,82.90
2018-11-23T05:27:48.482Z,82.74
2018-11-23T05:30:18.730Z,82.72
2018-11-23T05:32:47.110Z,82.37
2018-11-23T05:35:16.403Z,82.89
2018-11-23T05:37:44.773Z,82.99
2018-11-23T05:40:15.295Z,82.75
2018-11-23T05:42:43.675Z,82.77
2018-11-23T05:45:14.858Z,82.88
2018-11-23T05:47:43.361Z,82.58
2018-11-23T05:50:27.301Z,82.62
2018-11-23T05:52:55.661Z,82.63
2018-11-23T05:55:24.054Z,82.77
2018-11-23T05:57:52.605Z,82.87
2018-11-23T06:00:23.521Z,82.38
2018-11-23T06:02:51.891Z,82.72
2018-11-23T06:05:20.286Z,82.67
2018-11-23T06:07:48.669Z,82.75
2018-11-23T06:10:18.463Z,83.22
2018-11-23T06:12:46.922Z,83.33
2018-11-23T06:15:17.687Z,83.75
2018-11-23T06:17:46.581Z,83.66
2018-11-23T06:20:17.121Z,83.71
2018-11-23T06:22:46.714Z,84.17
2018-11-23T06:26:19.753Z,84.31
2018-11-23T06:28:48.113Z,84.42
2018-11-23T06:31:16.521Z,84.57
2018-11-23T06:33:46.329Z,84.73
2018-11-23T06:36:14.689Z,84.77
2018-11-23T06:38:43.091Z,84.84
2018-11-23T06:41:12.006Z,85.00
2018-11-23T06:43:40.490Z,85.06
2018-11-23T06:46:10.405Z,85.42
2018-11-23T06:48:38.793Z,85.12
2018-11-23T06:51:07.383Z,85.60
2018-11-23T06:53:35.762Z,85.41
2018-11-23T06:56:04.720Z,85.65
2018-11-23T06:58:33.118Z,85.50
2018-11-23T07:01:01.482Z,85.38
2018-11-23T07:03:29.875Z,85.38
2018-11-23T07:05:58.776Z,85.57
2018-11-23T07:08:27.183Z,85.39
2018-11-23T07:10:59.256Z,85.84
2018-11-23T07:13:28.470Z,85.53
2018-11-23T07:15:56.847Z,85.63
2018-11-23T07:18:25.234Z,85.80
2018-11-23T07:20:53.891Z,85.36
2018-11-23T07:23:22.063Z,85.83
2018-11-23T07:25:50.429Z,86.27
2018-11-23T07:28:18.944Z,86.01
2018-11-23T07:30:47.314Z,86.10
2018-11-23T07:33:15.712Z,85.90
2018-11-23T07:35:44.087Z,86.13
2018-11-23T07:38:12.495Z,86.22
2018-11-23T07:40:53.245Z,86.07
2018-11-23T07:43:21.775Z,86.16
2018-11-23T07:45:50.275Z,85.68
2018-11-23T07:48:18.775Z,85.89
2018-11-23T07:50:47.155Z,85.74
2018-11-23T07:53:15.530Z,85.99
2018-11-23T07:55:43.949Z,85.90
2018-11-23T07:58:12.478Z,85.60
2018-11-23T08:00:40.948Z,85.77
2018-11-23T08:03:09.326Z,85.80
2018-11-23T08:05:37.729Z,86.11
2018-11-23T08:08:06.555Z,85.74
2018-11-23T08:10:34.206Z,86.06
2018-11-23T08:13:02.582Z,85.83
2018-11-23T08:15:31.058Z,85.65
2018-11-23T08:17:59.426Z,85.89
2018-11-23T08:20:27.837Z,85.62
2018-11-23T08:22:56.362Z,85.36
2018-11-23T08:25:25.798Z,85.57
2018-11-23T08:27:55.382Z,85.69
2018-11-23T08:30:25.227Z,85.45
2018-11-23T08:32:53.787Z,85.70
2018-11-23T08:35:22.263Z,85.39
2018-11-23T08:37:50.634Z,85.29
2018-11-23T08:40:21.042Z,84.75
2018-11-23T08:42:50.203Z,85.14
2018-11-23T08:45:20.455Z,85.55
2018-11-23T08:47:48.868Z,85.09
2018-11-23T08:50:20.462Z,84.55
2018-11-23T08:52:48.862Z,84.77
2018-11-23T08:55:18.041Z,84.71
2018-11-23T08:57:46.514Z,84.68
2018-11-23T09:00:18.187Z,84.67
2018-11-23T09:02:47.883Z,84.99
2018-11-23T09:05:16.845Z,84.37
2018-11-23T09:07:46.283Z,84.02
2018-11-23T09:10:16.721Z,84.92
2018-11-23T09:12:46.759Z,84.62
2018-11-23T09:15:15.685Z,84.72
2018-11-23T09:17:44.819Z,84.73
2018-11-23T09:20:13.898Z,83.79
2018-11-23T09:22:42.304Z,84.20
2018-11-23T09:25:13.627Z,84.20
2018-11-23T09:27:42.087Z,83.98
2018-11-23T09:30:12.726Z,83.90
2018-11-23T09:32:41.226Z,83.33
2018-11-23T09:35:09.694Z,83.40
2018-11-23T09:37:38.725Z,83.10
2018-11-23T09:40:09.506Z,83.21
2018-11-23T09:42:38.432Z,83.16
2018-11-23T09:45:08.866Z,82.53
2018-11-23T09:47:37.345Z,82.87
2018-11-23T09:50:08.103Z,83.06
2018-11-23T09:52:36.516Z,82.32
2018-11-23T09:55:05.561Z,82.45
2018-11-23T09:57:33.938Z,82.30
2018-11-23T10:00:05.121Z,82.41
2018-11-23T10:02:33.535Z,82.18
2018-11-23T10:05:01.923Z,81.98
2018-11-23T10:07:30.303Z,82.19
2018-11-23T10:09:58.707Z,81.80
2018-11-23T10:12:27.239Z,82.53
2018-11-23T10:14:55.631Z,83.20
2018-11-23T10:17:23.996Z,82.76
2018-11-23T10:19:58.045Z,82.27
2018-11-23T10:22:20.813Z,82.59
2018-11-23T10:24:49.202Z,82.72
2018-11-23T10:27:17.588Z,82.81
2018-11-23T10:29:45.965Z,82.67
2018-11-23T10:32:14.452Z,82.37
2018-11-23T10:34:42.880Z,82.75
2018-11-23T10:37:11.332Z,82.71
2018-11-23T10:39:39.734Z,82.82
2018-11-23T10:42:08.107Z,82.65
2018-11-23T10:44:36.494Z,83.24
2018-11-23T10:47:05.127Z,82.94
2018-11-23T10:49:33.519Z,82.49
2018-11-23T10:52:01.899Z,82.95
2018-11-23T10:54:30.326Z,82.93
2018-11-23T10:56:58.725Z,83.42
2018-11-23T10:59:27.122Z,82.82
2018-11-23T11:02:00.997Z,83.14
2018-11-23T11:04:34.806Z,82.64
2018-11-23T11:07:06.662Z,82.85
2018-11-23T11:09:35.247Z,82.71
2018-11-23T11:12:03.640Z,82.49
2018-11-23T11:14:32.032Z,82.90
2018-11-23T11:17:00.421Z,82.57
2018-11-23T11:19:28.862Z,82.77
2018-11-23T11:21:57.273Z,82.80
2018-11-23T11:24:25.633Z,82.89
2018-11-23T11:26:54.026Z,83.19
2018-11-23T11:29:22.388Z,83.36
2018-11-23T11:31:50.793Z,83.22
2018-11-23T11:34:19.929Z,82.69
2018-11-23T11:36:48.325Z,82.93
2018-11-23T11:39:18.181Z,82.89
2018-11-23T11:41:45.151Z,82.49
2018-11-23T11:44:13.519Z,82.98
2018-11-23T11:46:41.905Z,83.27
2018-11-23T11:49:10.302Z,83.01
2018-11-23T11:51:38.704Z,82.97
2018-11-23T11:54:07.154Z,83.33
2018-11-23T11:56:35.559Z,83.04
2018-11-23T11:59:03.998Z,82.61
2018-11-23T12:01:32.412Z,82.56
2018-11-23T12:04:00.785Z,82.87
2018-11-23T12:06:29.250Z,82.69
2018-11-23T12:08:57.652Z,82.89
2018-11-23T12:11:26.026Z,82.99
2018-11-23T12:13:54.553Z,83.17
2018-11-23T12:16:22.951Z,82.93
2018-11-23T12:18:51.426Z,82.99
2018-11-23T12:21:19.835Z,83.52
2018-11-23T12:23:48.272Z,83.02
2018-11-23T12:26:16.649Z,82.87
2018-11-23T12:28:45.056Z,82.92
2018-11-23T12:31:13.518Z,82.87
2018-11-23T12:33:42.001Z,82.62
2018-11-23T12:36:10.374Z,82.94
2018-11-23T12:38:43.017Z,82.81
2018-11-23T12:41:07.192Z,82.98
2018-11-23T12:43:35.600Z,82.42
2018-11-23T12:46:04.020Z,82.02
2018-11-23T12:48:32.411Z,82.52
2018-11-23T12:51:00.874Z,82.21
2018-11-23T12:53:29.274Z,82.28
2018-11-23T12:55:57.658Z,81.83
2018-11-23T12:58:26.089Z,82.52
2018-11-23T13:00:54.453Z,82.57
2018-11-23T13:03:22.850Z,82.90
2018-11-23T13:05:51.246Z,82.70
2018-11-23T13:08:19.622Z,82.95
2018-11-23T13:10:48.094Z,82.65
2018-11-23T13:13:16.465Z,83.04
2018-11-23T13:15:44.876Z,83.08
2018-11-23T13:18:13.890Z,83.62
2018-11-23T13:20:42.308Z,82.83
2018-11-23T13:23:11.401Z,83.45
2018-11-23T13:25:39.789Z,82.79
2018-11-23T13:28:08.199Z,83.26
2018-11-23T13:30:37.228Z,82.79
2018-11-23T13:33:05.837Z,83.52
2018-11-23T13:35:34.229Z,83.68
2018-11-23T13:38:02.602Z,83.05
2018-11-23T13:40:31.360Z,83.56
2018-11-23T13:43:00.566Z,83.56
2018-11-23T13:45:31.720Z,83.77
2018-11-23T13:48:00.111Z,83.60
2018-11-23T13:50:28.972Z,83.41
2018-11-23T13:52:59.775Z,83.81
2018-11-23T13:55:28.191Z,83.70
2018-11-23T13:57:56.563Z,84.36
2018-11-23T14:00:26.380Z,84.12
2018-11-23T14:02:54.760Z,83.98
2018-11-23T14:05:24.475Z,83.63
2018-11-23T14:07:54.158Z,84.18
2018-11-23T14:10:23.796Z,83.56
2018-11-23T14:12:52.322Z,84.20
2018-11-23T14:15:24.917Z,84.34
2018-11-23T14:17:54.291Z,83.68
2018-11-23T14:20:23.540Z,83.67
2018-11-23T14:22:51.941Z,84.21
2018-11-23T14:25:28.068Z,84.13
2018-11-23T14:27:56.827Z,83.96
2018-11-23T14:30:26.671Z,84.55
2018-11-23T14:32:55.396Z,84.10
2018-11-23T14:35:25.278Z,84.13
2018-11-23T14:37:54.502Z,84.89
2018-11-23T14:40:22.904Z,84.41
2018-11-23T14:42:51.835Z,84.74
2018-11-23T14:45:22.719Z,84.73
2018-11-23T14:47:51.812Z,84.57
2018-11-23T14:50:23.639Z,85.03
2018-11-23T14:52:53.084Z,85.31
2018-11-23T14:55:21.748Z,84.86
2018-11-23T14:57:50.155Z,84.81
2018-11-23T15:00:30.032Z,84.98
2018-11-23T15:02:59.675Z,84.58
2018-11-23T15:05:28.067Z,85.55
2018-11-23T15:07:56.637Z,84.79
2018-11-23T15:10:26.365Z,84.78
2018-11-23T15:12:56.062Z,85.17
2018-11-23T15:15:26.008Z,85.00
2018-11-23T15:17:54.970Z,85.39
2018-11-23T15:20:25.109Z,85.57
2018-11-23T15:22:58.019Z,85.33
2018-11-23T15:25:26.421Z,85.75
2018-11-23T15:27:54.935Z,85.61
2018-11-23T15:30:25.087Z,85.20
2018-11-23T15:32:53.534Z,85.06
2018-11-23T15:35:21.917Z,84.92
2018-11-23T15:37:50.298Z,85.28
2018-11-23T15:40:21.392Z,85.46
2018-11-23T15:42:50.655Z,84.96
2018-11-23T15:45:20.382Z,85.14
2018-11-23T15:47:48.740Z,85.33
2018-11-23T15:50:18.576Z,84.96
2018-11-23T15:52:47.433Z,85.49
2018-11-23T15:55:18.635Z,85.65
2018-11-23T15:57:47.783Z,85.30
2018-11-23T16:00:21.518Z,84.97
2018-11-23T16:02:50.278Z,85.16
2018-11-23T16:05:18.998Z,85.16
2018-11-23T16:07:47.909Z,85.76
2018-11-23T16:10:22.805Z,86.32
2018-11-23T16:12:52.503Z,86.15
2018-11-23T16:15:21.638Z,85.86
2018-11-23T16:17:50.494Z,86.01
2018-11-23T16:20:20.512Z,85.49
2018-11-23T16:22:50.254Z,86.11
2018-11-23T16:25:18.797Z,85.36
2018-11-23T16:27:48.559Z,85.86
2018-11-23T16:30:20.039Z,85.54
2018-11-23T16:32:49.678Z,85.79
2018-11-23T16:35:19.500Z,85.92
2018-11-23T16:37:48.017Z,86.33
2018-11-23T16:40:18.806Z,86.52
2018-11-23T16:42:47.215Z,87.18
2018-11-23T16:45:18.915Z,88.19
2018-11-23T16:47:47.768Z,87.56
2018-11-23T16:50:16.163Z,86.96
2018-11-23T16:52:45.758Z,86.99
2018-11-23T16:55:15.181Z,86.44
2018-11-23T16:57:44.762Z,86.54
2018-11-23T17:00:17.725Z,86.58
2018-11-23T17:02:46.127Z,86.17
2018-11-23T17:05:15.808Z,86.24
2018-11-23T17:07:44.204Z,85.65
2018-11-23T17:10:13.793Z,86.32
2018-11-23T17:12:42.613Z,86.61
2018-11-23T17:15:13.045Z,86.12
2018-11-23T17:17:41.537Z,86.56
2018-11-23T17:20:14.560Z,86.54
2018-11-23T17:22:44.018Z,86.27
2018-11-23T17:25:13.919Z,86.41
2018-11-23T17:27:42.531Z,86.66
2018-11-23T17:30:12.758Z,86.38
2018-11-23T17:32:41.228Z,86.68
2018-11-23T17:35:10.390Z,86.68
2018-11-23T17:37:39.398Z,86.44
2018-11-23T17:40:09.512Z,86.76
2018-11-23T17:42:37.880Z,86.55
2018-11-23T17:45:25.443Z,86.69
2018-11-23T17:47:54.491Z,86.82
2018-11-23T17:50:24.344Z,86.82
2018-11-23T17:52:53.046Z,87.30
2018-11-23T17:55:21.454Z,87.02
2018-11-23T17:57:50.451Z,86.59
2018-11-23T18:00:21.063Z,87.34
2018-11-23T18:02:50.033Z,86.51
2018-11-23T18:05:19.143Z,87.25
2018-11-23T18:07:47.870Z,87.13
2018-11-23T18:10:18.769Z,86.50
2018-11-23T18:12:47.430Z,86.61
2018-11-23T18:15:18.915Z,87.02
2018-11-23T18:17:47.886Z,86.70
2018-11-23T18:20:17.664Z,86.53
2018-11-23T18:22:46.469Z,94.50
2018-11-23T18:25:16.409Z,94.39
2018-11-23T18:27:45.019Z,95.13
2018-11-23T18:30:13.623Z,91.58
2018-11-23T18:32:42.078Z,90.44
2018-11-23T18:35:12.766Z,90.67
2018-11-23T18:37:41.230Z,86.96
2018-11-23T18:40:11.768Z,86.33
2018-11-23T18:42:40.157Z,82.89
2018-11-23T18:45:12.829Z,82.28
2018-11-23T18:47:43.011Z,82.38
2018-11-23T18:50:13.582Z,82.38
2018-11-23T18:52:41.993Z,82.35
2018-11-23T18:55:17.936Z,82.41
2018-11-23T18:57:39.837Z,82.78
2018-11-23T19:00:12.513Z,83.34
2018-11-23T19:02:41.207Z,83.75
2018-11-23T19:05:16.809Z,84.56
2018-11-23T19:07:45.202Z,84.50
2018-11-23T19:10:14.350Z,84.73
2018-11-23T19:12:42.787Z,84.84
2018-11-23T19:15:14.228Z,84.80
2018-11-23T19:17:42.732Z,84.75
2018-11-23T19:20:21.624Z,84.85
2018-11-23T19:22:52.342Z,85.45
2018-11-23T19:25:20.726Z,84.76
2018-11-23T19:27:49.126Z,84.75
2018-11-23T19:30:20.907Z,85.14
2018-11-23T19:32:48.222Z,84.94
2018-11-23T19:35:16.591Z,85.00
2018-11-23T19:37:44.997Z,85.40
2018-11-23T19:40:15.226Z,85.35
2018-11-23T19:42:44.164Z,85.41
2018-11-23T19:45:15.481Z,85.62
2018-11-23T19:47:43.903Z,85.86
2018-11-23T19:50:14.190Z,86.06
2018-11-23T19:52:42.583Z,86.34
2018-11-23T19:55:11.990Z,85.61
2018-11-23T19:57:40.432Z,86.00
2018-11-23T20:00:20.487Z,85.78
2018-11-23T20:02:48.860Z,85.84
2018-11-23T20:05:17.249Z,85.69
2018-11-23T20:07:46.413Z,85.67
2018-11-23T20:10:16.206Z,85.98
2018-11-23T20:12:45.163Z,85.62
2018-11-23T20:15:17.457Z,85.69
2018-11-23T20:17:45.875Z,85.97
2018-11-23T20:20:15.782Z,85.36
2018-11-23T20:22:44.397Z,85.62
2018-11-23T20:25:13.916Z,85.82
2018-11-23T20:27:42.320Z,85.92
2018-11-23T20:30:13.734Z,85.84
2018-11-23T20:32:42.133Z,85.44
2018-11-23T20:35:14.086Z,85.68
2018-11-23T20:37:42.486Z,85.49
2018-11-23T20:40:18.138Z,85.50
2018-11-23T20:42:46.552Z,85.98
2018-11-23T20:45:14.958Z,85.98
2018-11-23T20:47:43.354Z,85.91
2018-11-23T20:50:13.905Z,85.53
2018-11-23T20:52:42.306Z,85.49
2018-11-23T20:55:12.902Z,86.04
2018-11-23T20:57:41.297Z,86.00
2018-11-23T21:00:12.218Z,85.53
2018-11-23T21:02:40.733Z,86.16
2018-11-23T21:05:10.314Z,86.18
2018-11-23T21:07:38.772Z,85.92
2018-11-23T21:10:19.638Z,86.54
2018-11-23T21:12:40.004Z,85.67
2018-11-23T21:15:15.733Z,86.37
2018-11-23T21:17:44.141Z,86.11
2018-11-23T21:20:12.765Z,85.99
2018-11-23T21:22:41.152Z,86.05
2018-11-23T21:25:10.370Z,86.25
2018-11-23T21:27:38.741Z,85.96
2018-11-23T21:30:17.907Z,86.29
2018-11-23T21:32:46.289Z,85.66
2018-11-23T21:35:14.726Z,86.19
2018-11-23T21:37:43.115Z,86.05
2018-11-23T21:40:16.399Z,85.74
2018-11-23T21:42:44.844Z,86.05
2018-11-23T21:45:16.357Z,85.70
2018-11-23T21:47:44.778Z,85.96
2018-11-23T21:50:24.600Z,85.56
2018-11-23T21:52:45.559Z,86.14
2018-11-23T21:55:15.927Z,86.36
2018-11-23T21:57:44.305Z,85.67
2018-11-23T22:00:14.621Z,85.75
2018-11-23T22:02:43.032Z,86.17
2018-11-23T22:05:11.605Z,85.94
2018-11-23T22:07:40.006Z,86.17
2018-11-23T22:10:18.409Z,86.00
2018-11-23T22:12:46.783Z,86.31
2018-11-23T22:15:19.173Z,86.33
2018-11-23T22:17:47.993Z,86.08
2018-11-23T22:20:17.543Z,85.87
2018-11-23T22:22:45.920Z,85.45
2018-11-23T22:25:16.358Z,85.95
2018-11-23T22:27:44.923Z,85.23
2018-11-23T22:30:23.525Z,85.43
2018-11-23T22:32:51.904Z,85.29
2018-11-23T22:35:20.317Z,85.54
2018-11-23T22:37:48.682Z,85.47
2018-11-23T22:40:18.272Z,85.09
2018-11-23T22:42:47.815Z,85.91
2018-11-23T22:45:16.761Z,85.51
2018-11-23T22:47:45.160Z,85.65
2018-11-23T22:50:16.693Z,85.89
2018-11-23T22:52:45.082Z,85.71
2018-11-23T22:55:14.296Z,86.02
2018-11-23T22:57:43.896Z,85.40
2018-11-23T23:03:02.900Z,85.92
2018-11-23T23:05:31.265Z,85.47
2018-11-23T23:07:59.734Z,85.55
2018-11-23T23:10:28.104Z,85.37
2018-11-23T23:12:56.495Z,85.52
2018-11-23T23:15:24.862Z,85.53
2018-11-23T23:17:53.246Z,85.29
2018-11-23T23:20:22.771Z,85.07
2018-11-23T23:22:51.180Z,84.53
2018-11-23T23:25:19.545Z,85.00
2018-11-23T23:27:47.942Z,84.86
2018-11-23T23:30:17.295Z,85.06
2018-11-23T23:32:46.440Z,84.95
2018-11-23T23:35:15.598Z,84.53
2018-11-23T23:37:43.986Z,84.76
2018-11-23T23:40:16.370Z,84.94
2018-11-23T23:42:44.790Z,84.92
2018-11-23T23:45:16.918Z,84.43
2018-11-23T23:47:45.310Z,84.64
2018-11-23T23:50:18.796Z,84.29
2018-11-23T23:52:47.158Z,84.53
2018-11-23T23:55:15.543Z,84.32
2018-11-23T23:57:44.941Z,84.63
